Reliance, Texas
Current Conditions -  °F | °C
As of 5:53 PM on Wednesday 22 Oct 2014 (Local Time) from KCLL Reporting Station
Clear Clear  
Wind Chill: 79°   Ceiling: Unl
Heat Index: 80°   Visibility: 10mi
Dew Point: 56°   Wind: 6mph
Humidity: 45%   Direction: 40°NE
Pressure: 30.05"   Gusts: NA
Location:  30.6361°N, 96.3666°W
Report Text: KCLL 222253Z 04005KT 10SM CLR 26/13 A3005 RMK AO2 SLP171 T02610133
Loading
Personal Weather Stations






























Interactive Weather Map
Tropical Storm Tracking
New forecast layout! Learn more

10-Day Weather Forecast

Advertisements
Track Severe Weather on mobile